createdAt,value
2017-10-28T00:00:10.160Z,96012.84
2017-10-28T00:02:39.199Z,96008.80
2017-10-28T00:05:08.559Z,96013.75
2017-10-28T00:07:37.444Z,96002.58
2017-10-28T00:10:06.311Z,96005.70
2017-10-28T00:12:36.316Z,95998.14
2017-10-28T00:15:09.787Z,96002.98
2017-10-28T00:17:39.195Z,95995.88
2017-10-28T00:20:13.116Z,95995.72
2017-10-28T00:22:43.548Z,95998.40
2017-10-28T00:25:14.583Z,95998.23
2017-10-28T00:27:44.890Z,95995.73
2017-10-28T00:30:18.592Z,95980.24
2017-10-28T00:34:54.673Z,95980.66
2017-10-28T00:37:23.727Z,95961.36
2017-10-28T00:39:53.349Z,95971.91
2017-10-28T00:42:22.794Z,95965.28
2017-10-28T00:44:52.175Z,95956.73
2017-10-28T00:47:23.531Z,95945.72
2017-10-28T00:49:53.618Z,95940.02
2017-10-28T00:52:25.016Z,95931.52
2017-10-28T00:54:54.981Z,95913.88
2017-10-28T00:57:24.293Z,95924.33
2017-10-28T00:59:54.696Z,95924.09
2017-10-28T01:02:24.324Z,95913.88
2017-10-28T01:04:53.624Z,95910.29
2017-10-28T01:07:22.939Z,95911.69
2017-10-28T01:09:52.865Z,95907.34
2017-10-28T01:12:21.827Z,95919.61
2017-10-28T01:14:50.940Z,95904.22
2017-10-28T01:17:21.455Z,95903.88
2017-10-28T01:19:51.083Z,95902.41
2017-10-28T01:22:20.036Z,95897.11
2017-10-28T01:24:49.017Z,95880.78
2017-10-28T01:27:17.913Z,95874.45
2017-10-28T01:29:47.211Z,95869.55
2017-10-28T01:32:16.523Z,95877.78
2017-10-28T01:34:45.833Z,95866.56
2017-10-28T01:37:15.163Z,95869.45
2017-10-28T01:39:44.495Z,95872.45
2017-10-28T01:42:13.763Z,95877.61
2017-10-28T01:44:43.195Z,95860.69
2017-10-28T01:47:12.502Z,95849.52
2017-10-28T01:49:41.786Z,95851.53
2017-10-28T01:52:11.479Z,95854.57
2017-10-28T01:54:40.826Z,95839.77
2017-10-28T01:57:10.529Z,95842.59
2017-10-28T01:59:39.917Z,95835.03
2017-10-28T02:02:13.675Z,95823.83
2017-10-28T02:04:42.639Z,95832.70
2017-10-28T02:07:11.565Z,95823.47
2017-10-28T02:09:40.661Z,95813.16
2017-10-28T02:12:09.850Z,95808.09
2017-10-28T02:14:40.303Z,95793.83
2017-10-28T02:17:09.488Z,95801.17
2017-10-28T02:19:39.082Z,95801.34
2017-10-28T02:22:12.339Z,95787.94
2017-10-28T02:24:42.002Z,95786.89
2017-10-28T02:27:11.274Z,95776.59
2017-10-28T02:29:40.843Z,95759.10
2017-10-28T02:32:11.747Z,95758.52
2017-10-28T02:34:41.661Z,95754.98
2017-10-28T02:37:15.806Z,95746.14
2017-10-28T02:39:44.755Z,95754.89
2017-10-28T02:42:14.652Z,95760.38
2017-10-28T02:44:44.321Z,95761.58
2017-10-28T02:47:13.135Z,95768.98
2017-10-28T02:49:42.646Z,95768.35
2017-10-28T02:52:16.430Z,95760.20
2017-10-28T02:54:45.219Z,95754.07
2017-10-28T02:57:14.350Z,95754.91
2017-10-28T02:59:43.660Z,95748.80
2017-10-28T03:02:12.523Z,95741.03
2017-10-28T03:04:41.590Z,95738.25
2017-10-28T03:07:10.456Z,95733.40
2017-10-28T03:09:39.279Z,95731.16
2017-10-28T03:12:12.475Z,95709.71
2017-10-28T03:14:44.194Z,95709.28
2017-10-28T03:17:14.515Z,95720.41
2017-10-28T03:19:43.388Z,95713.52
2017-10-28T03:22:18.582Z,95698.16
2017-10-28T03:24:48.459Z,95707.16
2017-10-28T03:27:17.274Z,95690.88
2017-10-28T03:29:46.795Z,95683.50
2017-10-28T03:32:16.921Z,95681.16
2017-10-28T03:34:45.782Z,95685.89
2017-10-28T03:37:15.310Z,95687.02
2017-10-28T03:39:44.384Z,95683.56
2017-10-28T03:42:19.203Z,95669.56
2017-10-28T03:44:48.230Z,95670.19
2017-10-28T03:47:16.988Z,95662.86
2017-10-28T03:49:46.500Z,95648.87
2017-10-28T03:52:15.983Z,95660.81
2017-10-28T03:54:45.716Z,95662.05
2017-10-28T03:57:15.234Z,95661.70
2017-10-28T03:59:45.398Z,95658.74
2017-10-28T04:02:14.199Z,95658.58
2017-10-28T04:04:44.640Z,95648.98
2017-10-28T04:07:14.249Z,95657.34
2017-10-28T04:09:44.250Z,95647.08
2017-10-28T04:12:13.255Z,95649.41
2017-10-28T04:14:44.119Z,95652.60
2017-10-28T04:17:14.301Z,95654.23
2017-10-28T04:19:43.313Z,95650.19
2017-10-28T04:22:12.459Z,95643.31
2017-10-28T04:24:42.326Z,95642.36
2017-10-28T04:27:11.266Z,95644.03
2017-10-28T04:29:40.314Z,95634.03
2017-10-28T04:32:09.790Z,95625.93
2017-10-28T04:34:39.238Z,95629.81
2017-10-28T04:37:08.457Z,95623.88
2017-10-28T04:39:37.694Z,95605.96
2017-10-28T04:42:07.594Z,95614.80
2017-10-28T04:44:37.041Z,95617.95
2017-10-28T04:47:07.002Z,95612.48
2017-10-28T04:49:36.207Z,95583.34
2017-10-28T04:52:09.094Z,95591.50
2017-10-28T04:54:39.769Z,95591.81
2017-10-28T04:57:09.477Z,95578.30
2017-10-28T04:59:38.865Z,95558.33
2017-10-28T05:02:17.045Z,95556.15
2017-10-28T05:04:46.926Z,95540.53
2017-10-28T05:07:16.159Z,95539.05
2017-10-28T05:09:45.826Z,95533.50
2017-10-28T05:12:15.035Z,95538.73
2017-10-28T05:14:43.921Z,95543.16
2017-10-28T05:17:12.718Z,95519.48
2017-10-28T05:19:42.743Z,95531.98
2017-10-28T05:22:11.918Z,95514.95
2017-10-28T05:24:40.733Z,95506.38
2017-10-28T05:27:11.290Z,95516.39
2017-10-28T05:29:41.205Z,95506.98
2017-10-28T05:32:10.887Z,95508.33
2017-10-28T05:34:40.258Z,95488.74
2017-10-28T05:37:12.167Z,95480.11
2017-10-28T05:39:41.681Z,95470.26
2017-10-28T05:42:12.595Z,95457.16
2017-10-28T05:44:41.811Z,95456.41
2017-10-28T05:47:14.266Z,95460.66
2017-10-28T05:49:44.234Z,95454.34
2017-10-28T05:52:19.017Z,95454.46
2017-10-28T05:54:48.131Z,95449.22
2017-10-28T05:57:18.369Z,95437.92
2017-10-28T05:59:47.181Z,95428.06
2017-10-28T06:02:16.179Z,95417.30
2017-10-28T06:04:45.731Z,95412.36
2017-10-28T06:07:15.049Z,95429.88
2017-10-28T06:09:45.418Z,95436.06
2017-10-28T06:12:15.285Z,95429.91
2017-10-28T06:14:44.791Z,95441.00
2017-10-28T06:17:15.130Z,95437.22
2017-10-28T06:19:43.922Z,95436.11
2017-10-28T06:22:12.814Z,95441.58
2017-10-28T06:24:42.377Z,95427.61
2017-10-28T06:27:15.171Z,95429.45
2017-10-28T06:29:44.174Z,95423.16
2017-10-28T06:32:12.958Z,95416.67
2017-10-28T06:34:42.445Z,95414.77
2017-10-28T06:37:11.509Z,95402.42
2017-10-28T06:39:41.657Z,95404.73
2017-10-28T06:42:11.681Z,95406.25
2017-10-28T06:44:40.769Z,95399.66
2017-10-28T06:47:10.089Z,95414.89
2017-10-28T06:49:39.981Z,95430.01
2017-10-28T06:52:11.107Z,95420.08
2017-10-28T06:54:40.267Z,95410.95
2017-10-28T06:57:10.081Z,95415.08
2017-10-28T06:59:39.676Z,95428.72
2017-10-28T07:02:10.518Z,95432.22
2017-10-28T07:04:39.983Z,95430.16
2017-10-28T07:07:11.319Z,95428.34
2017-10-28T07:09:40.963Z,95430.84
2017-10-28T07:12:11.024Z,95413.89
2017-10-28T07:14:39.978Z,95419.93
2017-10-28T07:17:09.069Z,95407.51
2017-10-28T07:19:39.428Z,95414.47
2017-10-28T07:22:10.634Z,95397.00
2017-10-28T07:24:41.258Z,95399.45
2017-10-28T07:34:41.309Z,95388.17
2017-10-28T07:37:12.309Z,95369.73
2017-10-28T07:39:49.342Z,95357.18
2017-10-28T07:42:22.961Z,95359.91
2017-10-28T07:44:57.854Z,95343.56
2017-10-28T07:47:40.217Z,95346.56
2017-10-28T07:50:13.834Z,95342.34
2017-10-28T07:52:55.208Z,95348.78
2017-10-28T07:55:30.680Z,95330.71
2017-10-28T07:58:18.154Z,95332.75
2017-10-28T08:00:58.503Z,95336.03
2017-10-28T08:03:54.958Z,95341.25
2017-10-28T08:06:44.768Z,95339.46
2017-10-28T08:09:34.961Z,95333.52
2017-10-28T08:12:12.842Z,95342.73
2017-10-28T08:14:46.521Z,95348.21
2017-10-28T08:17:30.401Z,95346.08
2017-10-28T08:20:10.247Z,95346.16
2017-10-28T08:22:43.275Z,95343.19
2017-10-28T08:25:15.097Z,95335.97
2017-10-28T08:27:52.765Z,95324.75
2017-10-28T08:30:28.003Z,95322.98
2017-10-28T08:33:04.417Z,95332.83
2017-10-28T08:35:38.833Z,95341.53
2017-10-28T08:38:11.251Z,95330.52
2017-10-28T08:40:44.458Z,95323.59
2017-10-28T08:43:15.521Z,95332.00
2017-10-28T08:45:47.239Z,95321.78
2017-10-28T08:48:18.911Z,95323.52
2017-10-28T08:50:54.466Z,95321.64
2017-10-28T08:53:34.704Z,95306.73
2017-10-28T08:56:09.065Z,95312.09
2017-10-28T08:58:41.398Z,95314.24
2017-10-28T09:01:12.891Z,95321.50
2017-10-28T09:03:48.188Z,95318.38
2017-10-28T09:06:26.406Z,95311.68
2017-10-28T09:08:57.608Z,95315.03
2017-10-28T09:11:34.036Z,95310.23
2017-10-28T09:14:12.736Z,95306.87
2017-10-28T09:16:47.912Z,95295.34
2017-10-28T09:19:45.476Z,95281.78
2017-10-28T09:22:16.531Z,95279.68
2017-10-28T09:24:47.792Z,95263.06
2017-10-28T09:27:19.641Z,95254.77
2017-10-28T09:29:51.296Z,95260.75
2017-10-28T09:32:23.438Z,95255.28
2017-10-28T09:34:57.138Z,95254.61
2017-10-28T09:37:36.354Z,95249.14
2017-10-28T09:40:08.887Z,95242.26
2017-10-28T09:42:40.006Z,95253.41
2017-10-28T09:45:12.996Z,95250.83
2017-10-28T09:47:47.599Z,95248.79
2017-10-28T09:50:36.662Z,95240.11
2017-10-28T09:53:31.418Z,95240.97
2017-10-28T09:56:27.912Z,95237.55
2017-10-28T09:59:07.726Z,95226.62
2017-10-28T10:01:40.355Z,95219.21
2017-10-28T10:04:12.495Z,95211.75
2017-10-28T10:06:53.661Z,95223.41
2017-10-28T10:09:26.317Z,95227.48
2017-10-28T10:11:57.328Z,95212.27
2017-10-28T10:14:36.371Z,95210.77
2017-10-28T10:17:11.023Z,95199.73
2017-10-28T10:19:53.298Z,95203.96
2017-10-28T10:22:31.939Z,95208.23
2017-10-28T10:25:22.264Z,95184.19
2017-10-28T10:28:08.636Z,95176.56
2017-10-28T10:30:41.604Z,95182.52
2017-10-28T10:33:27.317Z,95179.80
2017-10-28T10:36:06.705Z,95176.31
2017-10-28T10:38:39.409Z,95181.63
2017-10-28T10:41:21.789Z,95189.68
2017-10-28T10:43:53.973Z,95181.65
2017-10-28T10:46:28.688Z,95182.53
2017-10-28T10:49:01.933Z,95183.87
2017-10-28T10:51:35.152Z,95177.59
2017-10-28T10:54:16.757Z,95178.63
2017-10-28T10:57:03.851Z,95179.11
2017-10-28T10:59:37.010Z,95163.91
2017-10-28T11:02:20.661Z,95158.27
2017-10-28T11:04:51.785Z,95153.65
2017-10-28T11:07:25.072Z,95147.52
2017-10-28T11:09:59.185Z,95135.73
2017-10-28T11:12:38.548Z,95138.66
2017-10-28T11:15:38.924Z,95140.34
2017-10-28T11:18:19.481Z,95156.19
2017-10-28T11:20:55.035Z,95141.16
2017-10-28T11:23:32.122Z,95155.55
2017-10-28T11:26:12.828Z,95155.07
2017-10-28T11:28:47.971Z,95137.17
2017-10-28T11:31:20.548Z,95130.39
2017-10-28T11:33:52.891Z,95121.06
2017-10-28T11:36:24.220Z,95122.87
2017-10-28T11:38:55.969Z,95118.63
2017-10-28T11:41:30.817Z,95117.34
2017-10-28T11:44:12.335Z,95116.80
2017-10-28T11:46:55.949Z,95119.61
2017-10-28T11:49:39.869Z,95117.41
2017-10-28T11:52:24.745Z,95101.67
2017-10-28T11:55:14.250Z,95110.67
2017-10-28T11:57:48.078Z,95100.97
2017-10-28T12:00:30.403Z,95077.75
2017-10-28T12:03:18.164Z,95071.37
2017-10-28T12:05:50.353Z,95059.27
2017-10-28T12:08:35.858Z,95052.70
2017-10-28T12:11:13.917Z,95058.52
2017-10-28T12:13:45.920Z,95048.70
2017-10-28T12:16:17.798Z,95059.76
2017-10-28T12:18:56.883Z,95047.09
2017-10-28T12:21:30.864Z,95042.16
2017-10-28T12:24:04.171Z,95058.14
2017-10-28T12:26:41.017Z,95047.59
2017-10-28T12:29:56.502Z,95035.27
2017-10-28T12:33:04.275Z,95039.19
2017-10-28T12:38:16.221Z,95041.02
2017-10-28T12:40:50.384Z,95015.59
2017-10-28T12:43:25.669Z,95038.55
2017-10-28T12:45:58.016Z,95026.22
2017-10-28T12:48:30.069Z,95027.76
2017-10-28T12:51:13.912Z,95026.45
2017-10-28T12:53:54.080Z,95024.23
2017-10-28T12:56:29.071Z,95018.95
2017-10-28T12:59:04.978Z,95005.20
2017-10-28T13:01:41.337Z,95006.72
2017-10-28T13:04:12.371Z,95015.42
2017-10-28T13:06:44.639Z,95002.58
2017-10-28T13:09:17.207Z,95002.88
2017-10-28T13:12:31.681Z,94989.12
2017-10-28T13:15:11.626Z,94982.22
2017-10-28T13:17:48.579Z,94974.35
2017-10-28T13:20:20.334Z,94984.39
2017-10-28T13:22:59.817Z,94975.45
2017-10-28T13:25:33.956Z,94971.44
2017-10-28T13:28:08.540Z,94982.14
2017-10-28T13:30:50.568Z,94969.48
2017-10-28T13:33:22.746Z,94963.97
2017-10-28T13:35:55.161Z,94957.81
2017-10-28T13:38:36.400Z,94947.86
2017-10-28T13:41:18.888Z,94948.14
2017-10-28T13:44:11.131Z,94941.97
2017-10-28T13:46:53.078Z,94948.22
2017-10-28T13:49:31.329Z,94942.34
2017-10-28T13:52:07.033Z,94945.82
2017-10-28T13:54:38.545Z,94935.61
2017-10-28T13:57:11.818Z,94926.42
2017-10-28T13:59:49.525Z,94922.13
2017-10-28T14:02:21.998Z,94927.03
2017-10-28T14:04:57.946Z,94919.75
2017-10-28T14:07:30.758Z,94933.55
2017-10-28T14:10:12.365Z,94920.41
2017-10-28T14:12:48.196Z,94919.89
2017-10-28T14:15:19.948Z,94914.05
2017-10-28T14:17:51.092Z,94910.47
2017-10-28T14:20:23.206Z,94910.19
2017-10-28T14:22:57.605Z,94915.30
2017-10-28T14:25:31.680Z,94895.92
2017-10-28T14:28:10.326Z,94892.78
2017-10-28T14:30:45.193Z,94881.15
2017-10-28T14:33:19.340Z,94895.22
2017-10-28T14:35:55.958Z,94877.58
2017-10-28T14:38:28.228Z,94899.17
2017-10-28T14:41:24.969Z,94894.87
2017-10-28T14:43:59.829Z,94887.70
2017-10-28T14:46:32.493Z,94890.55
2017-10-28T14:49:16.130Z,94875.84
2017-10-28T14:52:20.482Z,94886.80
2017-10-28T14:54:52.786Z,94877.38
2017-10-28T14:57:26.226Z,94866.64
2017-10-28T14:59:58.144Z,94855.15
2017-10-28T15:02:29.453Z,94870.34
2017-10-28T15:05:16.471Z,94863.13
2017-10-28T15:07:48.655Z,94875.23
2017-10-28T15:10:22.198Z,94861.22
2017-10-28T15:23:03.922Z,94826.94
2017-10-28T15:25:34.868Z,94842.80
2017-10-28T15:28:08.068Z,94834.84
2017-10-28T15:30:39.401Z,94834.55
2017-10-28T15:33:10.265Z,94823.28
2017-10-28T15:35:41.068Z,94812.97
2017-10-28T15:38:11.753Z,94813.00
2017-10-28T15:40:43.308Z,94813.50
2017-10-28T15:43:17.451Z,94812.67
2017-10-28T15:45:49.204Z,94815.10
2017-10-28T15:48:21.240Z,94817.00
2017-10-28T15:50:53.485Z,94813.71
2017-10-28T15:53:24.053Z,94813.27
2017-10-28T15:55:56.010Z,94802.88
2017-10-28T15:58:26.606Z,94796.91
2017-10-28T16:00:57.620Z,94785.89
2017-10-28T16:03:28.409Z,94784.37
2017-10-28T16:05:58.911Z,94788.41
2017-10-28T16:08:29.729Z,94788.52
2017-10-28T16:11:00.536Z,94794.77
2017-10-28T16:13:43.161Z,94795.19
2017-10-28T16:16:13.974Z,94798.44
2017-10-28T16:18:46.580Z,94794.59
2017-10-28T16:21:18.044Z,94790.55
2017-10-28T16:23:49.208Z,94787.70
2017-10-28T16:26:19.853Z,94779.70
2017-10-28T16:28:50.711Z,94775.59
2017-10-28T16:31:22.153Z,94778.83
2017-10-28T16:33:53.847Z,94763.44
2017-10-28T16:36:24.699Z,94758.27
2017-10-28T16:38:56.419Z,94752.55
2017-10-28T16:41:28.661Z,94742.37
2017-10-28T16:44:03.401Z,94749.92
2017-10-28T16:46:35.361Z,94742.75
2017-10-28T16:49:10.914Z,94739.42
2017-10-28T16:51:44.981Z,94740.77
2017-10-28T16:54:17.714Z,94738.05
2017-10-28T16:56:48.792Z,94738.59
2017-10-28T16:59:21.395Z,94719.70
2017-10-28T17:01:53.003Z,94712.30
2017-10-28T17:04:25.928Z,94712.42
2017-10-28T17:06:56.740Z,94701.45
2017-10-28T17:09:28.145Z,94693.71
